Time;durP1;ratioP1;P1;durP2;ratioP2;P2;SDS_P1;SDS_P2;PMS_P1;PMS_P2;Temp;Humidity;BMP_temperature;BMP_pressure;BME280_temperature;BME280_humidity;BME280_pressure;Samples;Min_cycle;Max_cycle;Signal;HPM_P1;HPM_P2
2023/08/03 00:00:07;;;;;;;3.77;1.90;;;;;;;;;;5032384;28;20188;-79
2023/08/03 00:02:34;;;;;;;4.83;1.90;;;;;;;;;;5030152;28;20221;-76
2023/08/03 00:05:03;;;;;;;3.17;1.63;;;;;;;;;;5000575;28;20267;-76
2023/08/03 00:07:30;;;;;;;4.13;1.60;;;;;;;;;;5013182;28;20184;-76
2023/08/03 00:09:56;;;;;;;3.43;1.60;;;;;;;;;;5021291;28;20243;-76
2023/08/03 00:12:22;;;;;;;3.73;1.90;;;;;;;;;;5028886;28;20200;-76
2023/08/03 00:14:49;;;;;;;4.37;1.77;;;;;;;;;;5042062;28;20216;-76
2023/08/03 00:17:15;;;;;;;4.27;1.73;;;;;;;;;;5014792;28;20291;-76
2023/08/03 00:19:41;;;;;;;3.33;1.63;;;;;;;;;;5048352;28;20268;-79
2023/08/03 00:22:08;;;;;;;3.63;1.80;;;;;;;;;;5015890;28;20181;-79
2023/08/03 00:24:34;;;;;;;4.93;1.90;;;;;;;;;;5034555;28;20180;-79
2023/08/03 00:27:00;;;;;;;4.50;1.87;;;;;;;;;;5033726;28;20211;-79
2023/08/03 00:29:26;;;;;;;6.47;2.13;;;;;;;;;;5029167;28;20196;-79
2023/08/03 00:31:52;;;;;;;5.57;2.10;;;;;;;;;;5019128;28;20196;-79
2023/08/03 00:34:18;;;;;;;4.33;2.03;;;;;;;;;;5029948;28;20196;-76
2023/08/03 00:36:44;;;;;;;3.10;2.17;;;;;;;;;;5015451;28;20307;-76
2023/08/03 00:39:10;;;;;;;4.63;2.20;;;;;;;;;;4996059;28;20265;-76
2023/08/03 00:41:36;;;;;;;4.37;2.10;;;;;;;;;;4995757;28;20174;-76
2023/08/03 00:44:02;;;;;;;4.20;2.17;;;;;;;;;;5018291;28;20244;-76
2023/08/03 00:46:28;;;;;;;2.90;1.80;;;;;;;;;;5035805;28;20181;-76
2023/08/03 00:48:54;;;;;;;2.40;1.87;;;;;;;;;;5018916;28;20185;-76
2023/08/03 00:51:20;;;;;;;4.53;2.10;;;;;;;;;;5018886;28;20188;-79
2023/08/03 00:53:46;;;;;;;3.47;2.27;;;;;;;;;;5019893;28;20240;-79
2023/08/03 00:56:13;;;;;;;4.50;2.47;;;;;;;;;;5015419;28;20189;-79
2023/08/03 00:58:39;;;;;;;4.40;2.50;;;;;;;;;;5023683;28;20348;-75
2023/08/03 01:01:06;;;;;;;9.27;3.00;;;;;;;;;;5019285;28;20188;-75
2023/08/03 01:03:32;;;;;;;12.57;4.13;;;;;;;;;;5033116;28;20184;-75
2023/08/03 01:05:58;;;;;;;16.63;4.20;;;;;;;;;;5019044;28;20245;-75
2023/08/03 01:08:24;;;;;;;4.73;3.40;;;;;;;;;;5018937;28;20268;-80
2023/08/03 01:10:51;;;;;;;7.87;4.10;;;;;;;;;;5015496;28;20185;-80
2023/08/03 01:13:17;;;;;;;7.00;4.60;;;;;;;;;;5026263;28;20245;-80
2023/08/03 01:15:43;;;;;;;7.53;4.50;;;;;;;;;;5016748;28;20177;-80
2023/08/03 01:18:09;;;;;;;7.37;4.83;;;;;;;;;;5015162;28;20240;-80
2023/08/03 01:20:37;;;;;;;11.33;5.57;;;;;;;;;;5020411;28;20172;-79
2023/08/03 01:23:05;;;;;;;8.03;5.40;;;;;;;;;;5027163;28;20180;-79
2023/08/03 01:25:34;;;;;;;10.97;5.53;;;;;;;;;;5018588;28;20181;-79
2023/08/03 01:28:00;;;;;;;9.17;5.33;;;;;;;;;;5018241;28;20189;-80
2023/08/03 01:30:26;;;;;;;9.10;4.80;;;;;;;;;;5011534;28;20203;-80
2023/08/03 01:32:52;;;;;;;7.07;4.43;;;;;;;;;;4979070;28;20181;-79
2023/08/03 01:35:19;;;;;;;7.50;3.80;;;;;;;;;;5012337;28;20185;-79
2023/08/03 01:37:45;;;;;;;5.97;3.27;;;;;;;;;;5034210;28;20212;-79
2023/08/03 01:40:11;;;;;;;7.37;3.17;;;;;;;;;;5035677;28;20183;-80
2023/08/03 01:42:37;;;;;;;8.13;2.87;;;;;;;;;;5018121;28;20180;-79
2023/08/03 01:45:06;;;;;;;6.90;2.63;;;;;;;;;;5035422;28;20235;-79
2023/08/03 01:47:32;;;;;;;5.10;2.70;;;;;;;;;;5035583;28;20219;-79
2023/08/03 01:49:58;;;;;;;3.83;2.67;;;;;;;;;;5020162;28;20200;-79
2023/08/03 01:52:24;;;;;;;5.50;2.50;;;;;;;;;;5014392;28;20232;-79
2023/08/03 01:54:50;;;;;;;5.37;2.83;;;;;;;;;;5015278;28;20193;-79
2023/08/03 01:57:19;;;;;;;5.57;2.83;;;;;;;;;;5014699;28;20320;-79
2023/08/03 01:59:46;;;;;;;5.37;3.23;;;;;;;;;;5026545;28;20184;-79
2023/08/03 02:02:15;;;;;;;7.47;4.17;;;;;;;;;;5034274;28;20177;-79
2023/08/03 02:04:41;;;;;;;7.37;4.37;;;;;;;;;;5017654;28;20180;-79
2023/08/03 02:07:30;;;;;;;15.60;5.53;;;;;;;;;;5035315;28;20204;-79
2023/08/03 02:09:56;;;;;;;11.47;5.50;;;;;;;;;;5009128;28;20229;-79
2023/08/03 02:12:22;;;;;;;10.63;5.77;;;;;;;;;;5015796;28;20219;-78
2023/08/03 02:14:48;;;;;;;16.13;6.20;;;;;;;;;;5034428;28;20185;-79
2023/08/03 02:17:14;;;;;;;12.57;5.67;;;;;;;;;;5015852;28;20209;-79
2023/08/03 02:19:40;;;;;;;14.10;6.00;;;;;;;;;;5013778;28;20212;-79
2023/08/03 02:22:06;;;;;;;17.33;6.13;;;;;;;;;;4998251;28;20178;-79
2023/08/03 02:24:32;;;;;;;14.50;6.33;;;;;;;;;;4987697;28;20181;-79
2023/08/03 02:26:58;;;;;;;16.13;6.97;;;;;;;;;;5034664;28;20203;-79
2023/08/03 02:29:24;;;;;;;15.53;6.40;;;;;;;;;;4999757;28;20177;-79
2023/08/03 02:31:50;;;;;;;15.13;6.40;;;;;;;;;;5007818;28;20219;-76
2023/08/03 02:34:16;;;;;;;16.60;6.83;;;;;;;;;;5013499;28;20220;-76
2023/08/03 02:36:42;;;;;;;13.40;6.43;;;;;;;;;;5013539;28;20217;-80
2023/08/03 02:39:08;;;;;;;15.70;6.87;;;;;;;;;;5016887;28;20176;-80
2023/08/03 02:41:38;;;;;;;19.70;7.23;;;;;;;;;;5034535;28;20183;-80
2023/08/03 02:44:04;;;;;;;13.63;6.53;;;;;;;;;;5003491;28;20268;-75
2023/08/03 02:46:32;;;;;;;10.13;6.60;;;;;;;;;;5013546;28;20186;-75
2023/08/03 02:49:00;;;;;;;12.63;6.37;;;;;;;;;;5004994;28;20195;-76
2023/08/03 02:51:26;;;;;;;16.37;6.90;;;;;;;;;;5038403;22;20196;-79
2023/08/03 02:53:52;;;;;;;14.23;6.40;;;;;;;;;;4973299;28;20228;-79
2023/08/03 02:56:18;;;;;;;15.97;6.63;;;;;;;;;;4953187;28;20276;-75
2023/08/03 02:58:44;;;;;;;13.97;6.80;;;;;;;;;;4959834;28;20178;-75
2023/08/03 03:01:11;;;;;;;12.70;6.57;;;;;;;;;;4960758;28;20186;-75
2023/08/03 03:03:37;;;;;;;16.83;6.83;;;;;;;;;;4954996;28;20198;-75
2023/08/03 03:06:03;;;;;;;17.40;6.90;;;;;;;;;;4952320;28;20353;-75
2023/08/03 03:08:29;;;;;;;17.90;6.70;;;;;;;;;;4991183;28;20257;-75
2023/08/03 03:10:55;;;;;;;14.87;6.90;;;;;;;;;;4942076;28;20302;-75
2023/08/03 03:13:21;;;;;;;17.77;7.60;;;;;;;;;;4959004;28;20236;-75
2023/08/03 03:15:47;;;;;;;14.50;7.33;;;;;;;;;;4959044;28;20185;-75
2023/08/03 03:18:13;;;;;;;17.47;8.67;;;;;;;;;;4975793;28;20220;-75
2023/08/03 03:20:39;;;;;;;16.50;8.90;;;;;;;;;;4958552;28;20185;-75
2023/08/03 03:23:05;;;;;;;14.97;8.27;;;;;;;;;;4941848;28;20186;-76
2023/08/03 03:25:32;;;;;;;10.40;6.53;;;;;;;;;;4986343;28;20225;-76
2023/08/03 03:28:04;;;;;;;10.17;5.00;;;;;;;;;;4974937;28;20175;-76
2023/08/03 03:30:30;;;;;;;7.67;3.37;;;;;;;;;;4965889;28;20185;-76
2023/08/03 03:32:56;;;;;;;8.73;3.57;;;;;;;;;;4973071;28;20182;-76
2023/08/03 03:35:22;;;;;;;5.53;3.37;;;;;;;;;;4957760;28;20198;-76
2023/08/03 03:37:48;;;;;;;2.77;2.53;;;;;;;;;;4965730;28;20237;-76
2023/08/03 03:40:14;;;;;;;5.20;2.90;;;;;;;;;;4976878;28;20261;-76
2023/08/03 03:42:40;;;;;;;3.20;2.87;;;;;;;;;;4977634;28;20186;-76
2023/08/03 03:45:07;;;;;;;4.63;2.30;;;;;;;;;;4977322;28;20174;-76
2023/08/03 03:47:33;;;;;;;4.17;2.73;;;;;;;;;;4961232;28;20189;-76
2023/08/03 03:49:59;;;;;;;3.77;2.67;;;;;;;;;;4977231;28;20178;-76
2023/08/03 03:52:25;;;;;;;3.97;3.03;;;;;;;;;;4961269;28;20281;-76
2023/08/03 03:54:51;;;;;;;4.43;3.50;;;;;;;;;;4977516;28;20185;-75
2023/08/03 03:57:17;;;;;;;6.97;3.93;;;;;;;;;;4961042;28;20213;-75
2023/08/03 03:59:43;;;;;;;5.17;3.80;;;;;;;;;;4994195;28;20170;-75
2023/08/03 04:02:09;;;;;;;5.47;4.43;;;;;;;;;;4961184;28;20182;-75
2023/08/03 04:04:35;;;;;;;5.33;4.47;;;;;;;;;;4976937;28;20225;-75
2023/08/03 04:07:01;;;;;;;8.30;4.87;;;;;;;;;;4977401;28;20174;-75
2023/08/03 04:09:27;;;;;;;6.97;4.33;;;;;;;;;;4960985;28;20232;-75
2023/08/03 04:11:53;;;;;;;7.03;3.57;;;;;;;;;;4994459;28;20182;-75
2023/08/03 04:14:19;;;;;;;4.03;3.60;;;;;;;;;;4976412;28;20186;-75
2023/08/03 04:16:45;;;;;;;6.57;4.40;;;;;;;;;;4977843;28;20214;-75
2023/08/03 04:19:11;;;;;;;6.03;4.90;;;;;;;;;;4980666;28;20206;-75
2023/08/03 04:21:37;;;;;;;9.57;5.40;;;;;;;;;;4979855;28;20228;-75
2023/08/03 04:24:03;;;;;;;10.83;6.13;;;;;;;;;;4964500;28;20182;-75
2023/08/03 04:26:29;;;;;;;10.87;6.63;;;;;;;;;;4953290;28;20241;-75
2023/08/03 04:28:55;;;;;;;9.33;6.90;;;;;;;;;;4945569;28;20194;-75
2023/08/03 04:31:21;;;;;;;10.37;6.70;;;;;;;;;;4968449;28;20178;-75
2023/08/03 04:33:47;;;;;;;14.27;7.50;;;;;;;;;;4960884;28;20326;-75
2023/08/03 04:36:13;;;;;;;12.47;7.30;;;;;;;;;;4981075;28;20213;-75
2023/08/03 04:38:39;;;;;;;14.07;7.47;;;;;;;;;;4946380;28;20201;-75
2023/08/03 04:41:05;;;;;;;14.53;8.20;;;;;;;;;;4965571;28;20186;-75
2023/08/03 04:43:31;;;;;;;12.80;8.07;;;;;;;;;;4973635;28;20214;-75
2023/08/03 04:45:57;;;;;;;8.50;6.53;;;;;;;;;;4964398;28;20182;-76
2023/08/03 04:48:23;;;;;;;9.10;5.80;;;;;;;;;;4971171;28;20188;-76
2023/08/03 04:50:49;;;;;;;12.17;6.00;;;;;;;;;;4993889;28;20175;-76
2023/08/03 04:53:15;;;;;;;13.23;6.03;;;;;;;;;;4945469;28;20254;-77
2023/08/03 04:55:44;;;;;;;8.17;4.90;;;;;;;;;;4961087;28;20206;-77
2023/08/03 04:58:10;;;;;;;11.27;5.13;;;;;;;;;;4977538;28;20202;-76
2023/08/03 05:00:36;;;;;;;8.60;4.30;;;;;;;;;;4944063;28;20277;-76
2023/08/03 05:03:02;;;;;;;13.53;4.80;;;;;;;;;;4951411;28;20186;-76
2023/08/03 05:05:28;;;;;;;7.57;3.67;;;;;;;;;;4980189;28;20269;-76
2023/08/03 05:07:54;;;;;;;9.07;3.60;;;;;;;;;;4975756;28;20270;-76
2023/08/03 05:10:20;;;;;;;8.20;4.00;;;;;;;;;;4962029;28;20241;-77
2023/08/03 05:12:46;;;;;;;10.27;3.20;;;;;;;;;;4952461;28;20237;-77
2023/08/03 05:15:12;;;;;;;7.90;3.30;;;;;;;;;;4944524;28;20274;-76
2023/08/03 05:17:38;;;;;;;13.43;3.77;;;;;;;;;;4977498;28;20361;-76
2023/08/03 05:20:04;;;;;;;10.63;3.30;;;;;;;;;;4960024;28;20174;-77
2023/08/03 05:22:30;;;;;;;12.43;3.63;;;;;;;;;;4979187;28;20185;-77
2023/08/03 05:24:56;;;;;;;9.23;3.27;;;;;;;;;;4963204;28;20178;-77
2023/08/03 05:27:22;;;;;;;10.17;2.90;;;;;;;;;;4958986;28;20208;-77
2023/08/03 05:29:48;;;;;;;12.40;3.33;;;;;;;;;;4979583;28;20246;-76
2023/08/03 05:32:14;;;;;;;8.63;2.90;;;;;;;;;;4963017;28;20194;-76
2023/08/03 05:34:40;;;;;;;12.73;3.13;;;;;;;;;;4973832;28;20281;-77
2023/08/03 05:37:06;;;;;;;9.90;3.00;;;;;;;;;;4946390;28;20207;-76
2023/08/03 05:39:33;;;;;;;9.10;2.90;;;;;;;;;;4964681;28;20186;-77
2023/08/03 05:42:00;;;;;;;10.27;2.90;;;;;;;;;;4960908;28;20183;-77
2023/08/03 05:44:26;;;;;;;9.20;2.73;;;;;;;;;;4970315;28;20170;-77
2023/08/03 05:46:52;;;;;;;7.37;2.50;;;;;;;;;;4978685;28;20269;-77
2023/08/03 05:49:18;;;;;;;7.47;2.73;;;;;;;;;;4962506;28;20268;-77
2023/08/03 05:51:44;;;;;;;9.10;3.00;;;;;;;;;;4987494;28;20226;-77
2023/08/03 05:54:15;;;;;;;11.83;3.33;;;;;;;;;;4962237;28;20182;-77
2023/08/03 05:56:42;;;;;;;11.43;3.70;;;;;;;;;;4958903;28;20202;-77
2023/08/03 05:59:16;;;;;;;10.70;3.33;;;;;;;;;;4964274;28;20178;-77
2023/08/03 06:01:42;;;;;;;10.33;2.93;;;;;;;;;;4985246;28;20173;-77
2023/08/03 06:04:11;;;;;;;14.27;3.60;;;;;;;;;;4997516;28;20243;-77
2023/08/03 06:06:37;;;;;;;12.43;3.30;;;;;;;;;;4967592;28;20206;-76
2023/08/03 06:09:04;;;;;;;12.70;3.20;;;;;;;;;;4995705;28;20179;-79
2023/08/03 06:11:31;;;;;;;12.87;3.23;;;;;;;;;;4978321;28;20224;-75
2023/08/03 06:13:57;;;;;;;11.77;3.30;;;;;;;;;;4978327;28;20178;-76
2023/08/03 06:16:27;;;;;;;13.63;3.83;;;;;;;;;;4962063;28;20249;-75
2023/08/03 06:18:54;;;;;;;12.03;3.67;;;;;;;;;;4978743;28;20225;-76
2023/08/03 06:21:21;;;;;;;12.07;3.30;;;;;;;;;;4995686;28;20202;-75
2023/08/03 06:23:48;;;;;;;10.40;2.93;;;;;;;;;;4978449;28;20174;-76
2023/08/03 06:26:16;;;;;;;11.27;3.33;;;;;;;;;;4978856;28;20178;-79
2023/08/03 06:28:43;;;;;;;9.60;3.03;;;;;;;;;;4978764;28;20186;-79
2023/08/03 06:31:19;;;;;;;13.03;3.20;;;;;;;;;;4961607;28;20191;-79
2023/08/03 06:33:46;;;;;;;6.97;2.70;;;;;;;;;;4958800;28;20182;-80
2023/08/03 06:36:13;;;;;;;8.90;3.10;;;;;;;;;;4969042;28;20209;-80
2023/08/03 06:38:39;;;;;;;7.60;2.70;;;;;;;;;;5001256;28;20211;-79
2023/08/03 06:41:05;;;;;;;8.20;2.97;;;;;;;;;;4984338;28;20216;-76
2023/08/03 06:43:31;;;;;;;11.47;3.20;;;;;;;;;;4954542;28;20187;-76
2023/08/03 06:45:57;;;;;;;12.40;3.60;;;;;;;;;;4967284;28;20214;-76
2023/08/03 06:48:23;;;;;;;13.77;3.70;;;;;;;;;;4989651;28;20186;-77
2023/08/03 06:50:49;;;;;;;14.30;3.43;;;;;;;;;;4959407;28;20190;-77
2023/08/03 06:53:15;;;;;;;14.57;3.23;;;;;;;;;;4940558;28;20238;-78
2023/08/03 06:55:46;;;;;;;9.57;3.10;;;;;;;;;;4984509;28;20189;-77
2023/08/03 06:58:12;;;;;;;10.00;3.10;;;;;;;;;;4981183;28;20209;-76
2023/08/03 07:00:41;;;;;;;10.83;3.33;;;;;;;;;;4976867;28;20281;-76
2023/08/03 07:03:07;;;;;;;8.17;2.90;;;;;;;;;;4942180;28;20193;-76
2023/08/03 07:05:33;;;;;;;12.93;3.50;;;;;;;;;;4941561;28;20281;-76
2023/08/03 07:07:59;;;;;;;11.37;3.60;;;;;;;;;;4942205;28;20273;-76
2023/08/03 07:10:25;;;;;;;9.37;3.23;;;;;;;;;;4941702;28;20208;-76
2023/08/03 07:12:52;;;;;;;16.53;3.80;;;;;;;;;;4940831;28;20190;-76
2023/08/03 07:15:19;;;;;;;8.80;3.00;;;;;;;;;;4957789;28;20186;-76
2023/08/03 07:17:45;;;;;;;10.93;3.50;;;;;;;;;;4956612;28;20230;-76
2023/08/03 07:20:12;;;;;;;12.27;4.13;;;;;;;;;;4958054;28;20179;-76
2023/08/03 07:22:38;;;;;;;10.40;3.83;;;;;;;;;;4998429;28;20187;-76
2023/08/03 07:25:04;;;;;;;11.37;3.93;;;;;;;;;;5013768;28;20185;-76
2023/08/03 07:27:30;;;;;;;10.77;3.30;;;;;;;;;;4996345;28;20181;-78
2023/08/03 07:29:57;;;;;;;8.53;3.30;;;;;;;;;;4996625;28;20284;-78
2023/08/03 07:32:23;;;;;;;11.80;3.50;;;;;;;;;;4996834;28;20189;-78
2023/08/03 07:34:49;;;;;;;11.97;3.27;;;;;;;;;;4996386;28;20180;-78
2023/08/03 07:37:15;;;;;;;10.77;3.53;;;;;;;;;;4994662;28;20211;-78
2023/08/03 07:39:41;;;;;;;9.03;3.23;;;;;;;;;;4975246;28;20182;-78
2023/08/03 07:42:07;;;;;;;9.77;3.07;;;;;;;;;;4942181;28;20191;-75
2023/08/03 07:44:33;;;;;;;7.23;2.50;;;;;;;;;;4971665;28;20272;-76
2023/08/03 07:46:59;;;;;;;8.90;2.93;;;;;;;;;;4991765;28;20219;-75
2023/08/03 07:49:26;;;;;;;8.23;3.10;;;;;;;;;;4964322;28;20187;-75
2023/08/03 07:51:52;;;;;;;9.73;3.00;;;;;;;;;;4960813;28;20229;-76
2023/08/03 07:54:18;;;;;;;8.93;3.37;;;;;;;;;;4960482;28;20277;-75
2023/08/03 07:56:44;;;;;;;9.27;3.30;;;;;;;;;;4962001;28;20214;-75
2023/08/03 07:59:10;;;;;;;8.60;3.30;;;;;;;;;;4948619;28;20179;-75
2023/08/03 08:01:37;;;;;;;7.63;2.87;;;;;;;;;;4966888;28;20179;-75
2023/08/03 08:04:03;;;;;;;8.20;2.90;;;;;;;;;;4994314;28;20256;-80
2023/08/03 08:06:29;;;;;;;8.70;3.00;;;;;;;;;;4960970;28;20182;-79
2023/08/03 08:08:55;;;;;;;8.77;2.90;;;;;;;;;;4961425;28;20179;-79
2023/08/03 08:11:21;;;;;;;9.00;2.73;;;;;;;;;;4972871;28;20190;-79
2023/08/03 08:13:47;;;;;;;6.27;2.43;;;;;;;;;;4980464;28;20277;-78
2023/08/03 08:16:14;;;;;;;7.87;2.77;;;;;;;;;;4968156;28;20214;-79
2023/08/03 08:18:40;;;;;;;7.53;2.83;;;;;;;;;;4958566;28;20260;-79
2023/08/03 08:21:08;;;;;;;7.23;3.20;;;;;;;;;;4963077;28;20187;-79
2023/08/03 08:23:35;;;;;;;7.97;2.90;;;;;;;;;;4960814;28;20189;-79
2023/08/03 08:26:02;;;;;;;6.23;3.00;;;;;;;;;;4960730;28;20186;-79
2023/08/03 08:28:29;;;;;;;8.17;3.50;;;;;;;;;;4960755;28;20182;-79
2023/08/03 08:30:55;;;;;;;9.67;3.20;;;;;;;;;;4978233;28;20212;-79
2023/08/03 08:33:21;;;;;;;8.00;3.70;;;;;;;;;;4998778;28;20182;-79
2023/08/03 08:35:49;;;;;;;7.87;3.43;;;;;;;;;;4999284;28;20181;-79
2023/08/03 08:38:16;;;;;;;7.73;3.00;;;;;;;;;;5005727;28;20220;-79
2023/08/03 08:40:44;;;;;;;5.83;3.10;;;;;;;;;;4979623;28;20228;-79
2023/08/03 08:43:15;;;;;;;8.43;3.10;;;;;;;;;;4996668;28;20171;-77
2023/08/03 08:45:41;;;;;;;7.83;3.47;;;;;;;;;;4970135;28;20204;-78
2023/08/03 08:48:07;;;;;;;9.60;3.07;;;;;;;;;;4963386;28;20194;-77
2023/08/03 08:50:33;;;;;;;7.73;3.10;;;;;;;;;;4963776;28;20179;-77
2023/08/03 08:52:59;;;;;;;8.57;3.20;;;;;;;;;;5018210;23;20260;-86
2023/08/03 08:55:26;;;;;;;10.00;4.20;;;;;;;;;;4963612;28;20183;-86
2023/08/03 08:57:52;;;;;;;11.70;3.60;;;;;;;;;;4979377;28;20205;-86
2023/08/03 09:00:19;;;;;;;12.80;3.90;;;;;;;;;;4978353;28;20182;-86
2023/08/03 09:02:48;;;;;;;8.37;3.70;;;;;;;;;;4973526;28;20217;-86
2023/08/03 09:05:15;;;;;;;9.23;3.27;;;;;;;;;;4962559;28;20277;-86
2023/08/03 09:07:41;;;;;;;8.00;2.97;;;;;;;;;;4959777;28;20191;-86
2023/08/03 09:10:10;;;;;;;9.33;3.50;;;;;;;;;;4960049;28;20179;-86
2023/08/03 09:12:39;;;;;;;5.93;3.23;;;;;;;;;;4960221;28;20193;-86
2023/08/03 09:15:06;;;;;;;5.50;3.03;;;;;;;;;;4987924;28;20182;-87
2023/08/03 09:17:32;;;;;;;4.63;3.00;;;;;;;;;;4977706;28;20198;-86
2023/08/03 09:19:58;;;;;;;6.07;2.93;;;;;;;;;;4960961;28;20189;-87
2023/08/03 09:22:25;;;;;;;7.50;3.30;;;;;;;;;;4976838;28;20229;-87
2023/08/03 09:25:12;;;;;;;4.83;2.90;;;;;;;;;;4960233;28;20190;-86
2023/08/03 09:27:49;;;;;;;4.60;3.00;;;;;;;;;;4990682;28;20205;-86
2023/08/03 09:30:15;;;;;;;5.17;3.20;;;;;;;;;;4976340;28;20189;-86
2023/08/03 09:32:41;;;;;;;7.27;2.87;;;;;;;;;;4959889;28;20201;-86
2023/08/03 09:35:21;;;;;;;5.13;2.70;;;;;;;;;;4977292;28;20196;-87
2023/08/03 09:37:48;;;;;;;6.37;3.40;;;;;;;;;;4976269;28;20291;-86
2023/08/03 09:40:15;;;;;;;5.73;3.40;;;;;;;;;;4977160;28;20182;-87
2023/08/03 09:42:42;;;;;;;5.50;3.20;;;;;;;;;;4977262;28;20182;-86
2023/08/03 09:45:10;;;;;;;8.47;3.77;;;;;;;;;;4975926;28;20182;-86
2023/08/03 09:47:38;;;;;;;5.57;3.10;;;;;;;;;;4976311;28;20260;-87
2023/08/03 09:50:04;;;;;;;4.07;2.90;;;;;;;;;;4970059;28;20186;-87
2023/08/03 09:52:32;;;;;;;6.73;2.70;;;;;;;;;;4959517;28;20232;-87
2023/08/03 09:54:58;;;;;;;3.93;2.80;;;;;;;;;;4975258;28;20285;-87
2023/08/03 09:57:24;;;;;;;4.23;2.53;;;;;;;;;;4975242;28;20198;-87
2023/08/03 09:59:58;;;;;;;6.07;2.87;;;;;;;;;;4975753;28;20228;-87
2023/08/03 10:02:26;;;;;;;6.87;2.90;;;;;;;;;;4973314;28;20236;-87
2023/08/03 10:04:57;;;;;;;7.57;3.10;;;;;;;;;;4975438;28;20182;-87
2023/08/03 10:07:25;;;;;;;5.43;2.90;;;;;;;;;;4974056;28;20188;-87
2023/08/03 10:09:53;;;;;;;6.03;3.07;;;;;;;;;;4974106;28;20188;-87
2023/08/03 10:12:22;;;;;;;4.87;2.60;;;;;;;;;;4974676;28;20277;-87
2023/08/03 10:14:51;;;;;;;6.33;3.03;;;;;;;;;;4974751;28;20189;-87
2023/08/03 10:17:18;;;;;;;10.90;3.30;;;;;;;;;;4974255;28;20256;-86
2023/08/03 10:19:44;;;;;;;10.73;3.40;;;;;;;;;;4975218;28;20178;-86
2023/08/03 10:22:13;;;;;;;8.50;3.40;;;;;;;;;;4958277;28;20235;-86
2023/08/03 10:24:39;;;;;;;5.77;2.70;;;;;;;;;;4973467;28;20178;-87
2023/08/03 10:27:18;;;;;;;5.60;2.43;;;;;;;;;;4973888;28;20189;-87
2023/08/03 10:29:50;;;;;;;5.40;2.40;;;;;;;;;;4974030;28;20216;-86
2023/08/03 10:32:24;;;;;;;7.23;2.40;;;;;;;;;;4974433;28;20293;-87
2023/08/03 10:34:52;;;;;;;5.53;2.40;;;;;;;;;;4973133;28;20190;-87
2023/08/03 10:37:20;;;;;;;6.03;2.27;;;;;;;;;;4973753;28;20209;-87
2023/08/03 10:39:53;;;;;;;8.30;2.80;;;;;;;;;;4959310;28;20197;-88
2023/08/03 10:42:32;;;;;;;7.03;2.93;;;;;;;;;;4974692;28;20214;-88
2023/08/03 10:45:18;;;;;;;11.23;3.50;;;;;;;;;;4975612;28;20193;-88
2023/08/03 10:47:44;;;;;;;7.20;3.40;;;;;;;;;;4977004;28;20193;-88
2023/08/03 10:50:10;;;;;;;5.60;2.50;;;;;;;;;;4961602;28;20182;-87
2023/08/03 10:52:39;;;;;;;6.33;3.07;;;;;;;;;;4977908;28;20240;-93
2023/08/03 10:55:21;;;;;;;6.17;3.13;;;;;;;;;;4977737;28;20184;-89
2023/08/03 10:57:47;;;;;;;5.60;2.17;;;;;;;;;;4977637;28;20217;-90
2023/08/03 11:00:16;;;;;;;4.67;2.20;;;;;;;;;;4975769;28;20182;-89
2023/08/03 11:02:43;;;;;;;5.23;2.30;;;;;;;;;;4977171;28;20219;-89
2023/08/03 11:05:12;;;;;;;6.63;2.53;;;;;;;;;;4977732;28;20182;-91
2023/08/03 11:07:38;;;;;;;4.83;2.07;;;;;;;;;;4962218;28;20201;-90
2023/08/03 11:10:05;;;;;;;8.03;2.40;;;;;;;;;;4977429;28;20189;-89
2023/08/03 11:12:32;;;;;;;6.67;2.43;;;;;;;;;;4973456;28;20261;-88
2023/08/03 11:14:58;;;;;;;6.60;2.50;;;;;;;;;;4977300;28;20201;-88
2023/08/03 11:17:25;;;;;;;5.97;2.57;;;;;;;;;;4976964;28;20213;-88
2023/08/03 11:19:52;;;;;;;5.83;2.30;;;;;;;;;;4968478;28;20187;-89
2023/08/03 11:22:21;;;;;;;8.50;2.77;;;;;;;;;;4970603;28;20260;-89
2023/08/03 11:24:51;;;;;;;5.27;2.33;;;;;;;;;;4970783;28;20192;-89
2023/08/03 11:27:21;;;;;;;7.10;2.33;;;;;;;;;;4980438;28;20181;-89
2023/08/03 11:29:47;;;;;;;9.43;3.03;;;;;;;;;;4981894;28;20236;-89
2023/08/03 11:32:21;;;;;;;7.27;2.33;;;;;;;;;;4981883;28;20182;-90
2023/08/03 11:34:47;;;;;;;8.57;2.73;;;;;;;;;;4981330;28;20220;-88
2023/08/03 11:37:13;;;;;;;7.60;2.63;;;;;;;;;;4964906;28;20218;-88
2023/08/03 11:39:39;;;;;;;8.07;3.10;;;;;;;;;;4980947;28;20181;-87
2023/08/03 11:42:06;;;;;;;5.63;3.00;;;;;;;;;;4971685;28;20202;-87
2023/08/03 11:44:38;;;;;;;6.60;3.00;;;;;;;;;;4961616;28;20185;-87
2023/08/03 11:47:08;;;;;;;6.50;3.30;;;;;;;;;;4961556;28;20245;-88
2023/08/03 11:49:37;;;;;;;5.10;2.60;;;;;;;;;;4945762;28;20194;-88
2023/08/03 11:52:03;;;;;;;5.90;2.97;;;;;;;;;;4992290;28;20280;-88
2023/08/03 11:54:34;;;;;;;6.90;2.87;;;;;;;;;;5000590;28;20185;-88
2023/08/03 11:59:46;;;;;;;5.47;2.53;;;;;;;;;;5002782;28;20208;-89
2023/08/03 12:02:13;;;;;;;5.83;2.50;;;;;;;;;;5000046;28;20180;-88
2023/08/03 12:04:39;;;;;;;4.97;2.63;;;;;;;;;;5000132;28;20181;-89
2023/08/03 12:07:08;;;;;;;6.47;2.53;;;;;;;;;;5000278;28;20208;-89
2023/08/03 12:09:38;;;;;;;5.50;2.60;;;;;;;;;;4999737;28;20177;-89
2023/08/03 12:12:05;;;;;;;6.33;2.30;;;;;;;;;;4987400;28;20237;-88
2023/08/03 12:14:31;;;;;;;5.57;2.53;;;;;;;;;;4962958;28;20182;-88
2023/08/03 12:16:57;;;;;;;9.00;2.40;;;;;;;;;;4965522;28;20199;-90
2023/08/03 12:19:27;;;;;;;6.47;2.20;;;;;;;;;;4968197;28;20178;-90
2023/08/03 12:21:54;;;;;;;5.20;2.10;;;;;;;;;;4981065;28;20200;-88
2023/08/03 12:24:20;;;;;;;6.60;2.73;;;;;;;;;;4985659;28;20170;-90
2023/08/03 12:26:46;;;;;;;4.80;2.07;;;;;;;;;;4974501;28;20200;-89
2023/08/03 12:29:13;;;;;;;3.67;1.93;;;;;;;;;;4977256;28;20175;-89
2023/08/03 12:31:39;;;;;;;3.23;1.70;;;;;;;;;;4996236;28;20173;-89
2023/08/03 12:34:05;;;;;;;7.10;2.00;;;;;;;;;;4980208;28;20185;-89
2023/08/03 12:36:31;;;;;;;3.17;1.80;;;;;;;;;;4963616;28;20209;-87
2023/08/03 12:38:57;;;;;;;7.73;2.10;;;;;;;;;;4962986;28;20224;-88
2023/08/03 12:41:23;;;;;;;4.90;1.93;;;;;;;;;;4981129;28;20232;-89
2023/08/03 12:43:50;;;;;;;5.53;1.50;;;;;;;;;;4964037;28;20178;-89
2023/08/03 12:46:16;;;;;;;3.07;1.43;;;;;;;;;;4979823;28;20185;-89
2023/08/03 12:48:43;;;;;;;2.37;1.10;;;;;;;;;;4963131;28;20186;-90
2023/08/03 12:51:09;;;;;;;3.87;1.20;;;;;;;;;;4979977;28;20193;-89
2023/08/03 12:53:39;;;;;;;3.93;1.30;;;;;;;;;;4979781;28;20317;-88
2023/08/03 12:56:07;;;;;;;3.20;1.13;;;;;;;;;;4977724;28;20178;-89
2023/08/03 12:58:33;;;;;;;3.33;1.30;;;;;;;;;;4963509;28;20218;-89
2023/08/03 13:00:59;;;;;;;1.67;1.20;;;;;;;;;;4979952;28;20189;-89
2023/08/03 13:03:28;;;;;;;3.97;1.27;;;;;;;;;;4952308;28;20171;-89
2023/08/03 13:05:57;;;;;;;2.87;1.40;;;;;;;;;;4979821;28;20185;-91
2023/08/03 13:08:25;;;;;;;3.57;1.30;;;;;;;;;;4980002;28;20186;-89
2023/08/03 13:10:52;;;;;;;2.53;1.13;;;;;;;;;;4975897;28;20179;-89
2023/08/03 13:13:18;;;;;;;3.50;1.33;;;;;;;;;;4976396;28;20193;-89
2023/08/03 13:15:45;;;;;;;3.57;1.57;;;;;;;;;;4976419;28;20175;-90
2023/08/03 13:18:11;;;;;;;2.70;1.10;;;;;;;;;;4976505;28;20211;-87
2023/08/03 13:20:37;;;;;;;5.73;1.67;;;;;;;;;;4975578;28;20217;-90
2023/08/03 13:23:03;;;;;;;4.37;1.50;;;;;;;;;;4959974;28;20182;-88
2023/08/03 13:25:29;;;;;;;3.60;1.20;;;;;;;;;;4944002;28;20183;-89
2023/08/03 13:27:58;;;;;;;3.37;1.40;;;;;;;;;;4960085;28;20178;-90
2023/08/03 13:30:24;;;;;;;3.10;1.40;;;;;;;;;;4965153;28;20189;-89
2023/08/03 13:32:50;;;;;;;2.60;1.33;;;;;;;;;;4979209;28;20236;-89
2023/08/03 13:35:18;;;;;;;2.90;1.30;;;;;;;;;;4978936;28;20182;-86
2023/08/03 13:37:44;;;;;;;2.43;1.40;;;;;;;;;;4968843;28;20222;-86
2023/08/03 13:40:10;;;;;;;3.47;1.23;;;;;;;;;;4976309;28;20221;-88
2023/08/03 13:42:36;;;;;;;2.27;1.30;;;;;;;;;;4979657;28;20213;-87
2023/08/03 13:45:03;;;;;;;2.03;1.30;;;;;;;;;;4962694;28;20186;-87
2023/08/03 13:47:29;;;;;;;2.83;1.10;;;;;;;;;;4975374;28;20193;-89
2023/08/03 13:49:55;;;;;;;2.00;1.30;;;;;;;;;;4970592;28;20183;-88
2023/08/03 13:52:21;;;;;;;2.90;1.37;;;;;;;;;;4963128;28;20230;-88
2023/08/03 13:54:49;;;;;;;1.97;1.20;;;;;;;;;;4940696;29;20188;-88
2023/08/03 13:57:16;;;;;;;2.23;1.20;;;;;;;;;;4958699;28;20206;-88
2023/08/03 13:59:42;;;;;;;3.13;1.10;;;;;;;;;;4976076;28;20214;-89
2023/08/03 14:02:12;;;;;;;2.50;1.17;;;;;;;;;;4975973;28;20184;-90
2023/08/03 14:04:38;;;;;;;1.53;1.00;;;;;;;;;;4961377;28;20274;-89
2023/08/03 14:07:05;;;;;;;2.80;1.30;;;;;;;;;;4956605;29;20187;-87
2023/08/03 14:09:33;;;;;;;2.20;1.20;;;;;;;;;;4956301;29;20190;-89
2023/08/03 14:11:59;;;;;;;2.93;1.10;;;;;;;;;;4968628;28;20179;-88
2023/08/03 14:14:25;;;;;;;3.70;1.40;;;;;;;;;;4964335;28;20187;-89
2023/08/03 14:16:51;;;;;;;3.13;1.20;;;;;;;;;;4938806;29;20183;-88
2023/08/03 14:19:22;;;;;;;2.87;1.10;;;;;;;;;;4955308;29;20176;-89
2023/08/03 14:21:48;;;;;;;3.43;1.20;;;;;;;;;;4955310;29;20179;-88
2023/08/03 14:24:14;;;;;;;2.87;1.20;;;;;;;;;;4955377;29;20180;-88
2023/08/03 14:26:40;;;;;;;1.60;1.33;;;;;;;;;;4955531;29;20175;-88
2023/08/03 14:29:06;;;;;;;3.83;1.20;;;;;;;;;;4955539;29;20248;-88
2023/08/03 14:31:32;;;;;;;2.27;1.30;;;;;;;;;;4955502;29;20218;-88
2023/08/03 14:33:58;;;;;;;3.33;1.40;;;;;;;;;;4955407;29;20183;-88
2023/08/03 14:36:27;;;;;;;4.47;1.80;;;;;;;;;;4955130;29;20204;-88
2023/08/03 14:38:54;;;;;;;3.67;1.77;;;;;;;;;;4954976;29;20211;-86